sensor_id;sensor_type;location;lat;lon;timestamp;P1;durP1;ratioP1;P2;durP2;ratioP2
6519;SDS011;3293;51.690;5.982;2023-06-10T00:02:42;8.50;;;6.32;;
6519;SDS011;3293;51.690;5.982;2023-06-10T00:07:43;10.23;;;6.82;;
6519;SDS011;3293;51.690;5.982;2023-06-10T00:12:45;7.78;;;6.72;;
6519;SDS011;3293;51.690;5.982;2023-06-10T00:17:45;7.80;;;6.80;;
6519;SDS011;3293;51.690;5.982;2023-06-10T00:22:45;7.07;;;6.38;;
6519;SDS011;3293;51.690;5.982;2023-06-10T00:27:46;7.22;;;6.53;;
6519;SDS011;3293;51.690;5.982;2023-06-10T00:32:46;7.78;;;7.05;;
6519;SDS011;3293;51.690;5.982;2023-06-10T00:37:46;9.18;;;6.60;;
6519;SDS011;3293;51.690;5.982;2023-06-10T00:42:46;9.13;;;7.30;;
6519;SDS011;3293;51.690;5.982;2023-06-10T00:47:46;7.28;;;6.57;;
6519;SDS011;3293;51.690;5.982;2023-06-10T00:52:46;9.70;;;7.50;;
6519;SDS011;3293;51.690;5.982;2023-06-10T00:57:47;10.10;;;7.88;;
6519;SDS011;3293;51.690;5.982;2023-06-10T01:02:48;12.90;;;7.03;;
6519;SDS011;3293;51.690;5.982;2023-06-10T01:08:01;8.80;;;7.95;;
6519;SDS011;3293;51.690;5.982;2023-06-10T01:13:17;10.27;;;7.72;;
6519;SDS011;3293;51.690;5.982;2023-06-10T01:18:23;8.35;;;7.43;;
6519;SDS011;3293;51.690;5.982;2023-06-10T01:23:29;8.23;;;7.47;;
6519;SDS011;3293;51.690;5.982;2023-06-10T01:33:41;8.50;;;7.70;;
6519;SDS011;3293;51.690;5.982;2023-06-10T01:38:43;8.07;;;7.28;;
6519;SDS011;3293;51.690;5.982;2023-06-10T01:43:45;8.93;;;8.13;;
6519;SDS011;3293;51.690;5.982;2023-06-10T01:48:45;10.23;;;7.78;;
6519;SDS011;3293;51.690;5.982;2023-06-10T01:53:45;10.52;;;8.23;;
6519;SDS011;3293;51.690;5.982;2023-06-10T01:58:45;10.98;;;8.80;;
6519;SDS011;3293;51.690;5.982;2023-06-10T02:03:45;10.70;;;8.20;;
6519;SDS011;3293;51.690;5.982;2023-06-10T02:08:46;8.43;;;7.53;;
6519;SDS011;3293;51.690;5.982;2023-06-10T02:13:47;10.10;;;8.98;;
6519;SDS011;3293;51.690;5.982;2023-06-10T02:18:47;14.15;;;8.30;;
6519;SDS011;3293;51.690;5.982;2023-06-10T02:23:48;9.45;;;8.45;;
6519;SDS011;3293;51.690;5.982;2023-06-10T02:28:48;8.93;;;7.82;;
6519;SDS011;3293;51.690;5.982;2023-06-10T02:33:48;9.38;;;8.45;;
6519;SDS011;3293;51.690;5.982;2023-06-10T02:38:48;11.52;;;8.38;;
6519;SDS011;3293;51.690;5.982;2023-06-10T02:43:48;11.75;;;8.80;;
6519;SDS011;3293;51.690;5.982;2023-06-10T02:48:49;9.23;;;7.97;;
6519;SDS011;3293;51.690;5.982;2023-06-10T02:53:51;8.85;;;8.05;;
6519;SDS011;3293;51.690;5.982;2023-06-10T02:58:51;9.40;;;7.72;;
6519;SDS011;3293;51.690;5.982;2023-06-10T03:03:51;10.88;;;8.40;;
6519;SDS011;3293;51.690;5.982;2023-06-10T03:08:51;9.75;;;8.38;;
6519;SDS011;3293;51.690;5.982;2023-06-10T03:13:51;9.57;;;8.48;;
6519;SDS011;3293;51.690;5.982;2023-06-10T03:18:53;11.45;;;8.38;;
6519;SDS011;3293;51.690;5.982;2023-06-10T03:23:53;11.43;;;8.25;;
6519;SDS011;3293;51.690;5.982;2023-06-10T03:28:54;14.65;;;9.07;;
6519;SDS011;3293;51.690;5.982;2023-06-10T03:33:54;9.98;;;8.50;;
6519;SDS011;3293;51.690;5.982;2023-06-10T03:38:54;12.02;;;8.65;;
6519;SDS011;3293;51.690;5.982;2023-06-10T03:43:56;9.88;;;8.55;;
6519;SDS011;3293;51.690;5.982;2023-06-10T03:48:56;12.30;;;8.02;;
6519;SDS011;3293;51.690;5.982;2023-06-10T03:53:56;9.30;;;8.02;;
6519;SDS011;3293;51.690;5.982;2023-06-10T03:58:56;9.30;;;7.65;;
6519;SDS011;3293;51.690;5.982;2023-06-10T04:03:55;9.93;;;7.78;;
6519;SDS011;3293;51.690;5.982;2023-06-10T04:08:56;9.38;;;7.65;;
6519;SDS011;3293;51.690;5.982;2023-06-10T04:13:56;10.85;;;8.18;;
6519;SDS011;3293;51.690;5.982;2023-06-10T04:18:56;11.57;;;7.82;;
6519;SDS011;3293;51.690;5.982;2023-06-10T04:23:56;10.18;;;7.55;;
6519;SDS011;3293;51.690;5.982;2023-06-10T04:28:56;12.10;;;8.00;;
6519;SDS011;3293;51.690;5.982;2023-06-10T04:33:56;12.25;;;7.80;;
6519;SDS011;3293;51.690;5.982;2023-06-10T04:38:56;9.93;;;7.85;;
6519;SDS011;3293;51.690;5.982;2023-06-10T04:43:56;12.35;;;8.25;;
6519;SDS011;3293;51.690;5.982;2023-06-10T04:48:57;8.25;;;7.45;;
6519;SDS011;3293;51.690;5.982;2023-06-10T04:53:57;9.73;;;7.57;;
6519;SDS011;3293;51.690;5.982;2023-06-10T04:58:57;10.82;;;7.75;;
6519;SDS011;3293;51.690;5.982;2023-06-10T05:03:58;8.88;;;7.15;;
6519;SDS011;3293;51.690;5.982;2023-06-10T05:08:58;8.63;;;7.32;;
6519;SDS011;3293;51.690;5.982;2023-06-10T05:13:58;7.57;;;5.85;;
6519;SDS011;3293;51.690;5.982;2023-06-10T05:18:58;8.30;;;6.60;;
6519;SDS011;3293;51.690;5.982;2023-06-10T05:23:58;9.75;;;7.00;;
6519;SDS011;3293;51.690;5.982;2023-06-10T05:28:58;8.10;;;6.90;;
6519;SDS011;3293;51.690;5.982;2023-06-10T05:33:58;7.22;;;6.35;;
6519;SDS011;3293;51.690;5.982;2023-06-10T05:38:58;9.82;;;6.07;;
6519;SDS011;3293;51.690;5.982;2023-06-10T05:43:58;7.75;;;6.05;;
6519;SDS011;3293;51.690;5.982;2023-06-10T05:48:58;9.35;;;6.45;;
6519;SDS011;3293;51.690;5.982;2023-06-10T05:53:58;8.43;;;5.85;;
6519;SDS011;3293;51.690;5.982;2023-06-10T05:58:58;7.22;;;6.05;;
6519;SDS011;3293;51.690;5.982;2023-06-10T06:03:58;6.40;;;5.80;;
6519;SDS011;3293;51.690;5.982;2023-06-10T06:08:58;8.18;;;5.82;;
6519;SDS011;3293;51.690;5.982;2023-06-10T06:13:58;8.32;;;5.72;;
6519;SDS011;3293;51.690;5.982;2023-06-10T06:18:59;7.18;;;6.35;;
6519;SDS011;3293;51.690;5.982;2023-06-10T06:23:59;9.60;;;6.97;;
6519;SDS011;3293;51.690;5.982;2023-06-10T06:28:59;7.90;;;5.75;;
6519;SDS011;3293;51.690;5.982;2023-06-10T06:33:58;10.40;;;6.57;;
6519;SDS011;3293;51.690;5.982;2023-06-10T06:38:59;16.80;;;6.80;;
6519;SDS011;3293;51.690;5.982;2023-06-10T06:43:58;14.20;;;6.30;;
6519;SDS011;3293;51.690;5.982;2023-06-10T06:48:59;7.75;;;5.82;;
6519;SDS011;3293;51.690;5.982;2023-06-10T06:53:59;11.30;;;5.63;;
6519;SDS011;3293;51.690;5.982;2023-06-10T06:58:59;8.95;;;5.85;;
6519;SDS011;3293;51.690;5.982;2023-06-10T07:03:59;8.75;;;5.85;;
6519;SDS011;3293;51.690;5.982;2023-06-10T07:08:59;10.25;;;6.13;;
6519;SDS011;3293;51.690;5.982;2023-06-10T07:13:59;9.23;;;5.13;;
6519;SDS011;3293;51.690;5.982;2023-06-10T07:18:59;17.73;;;6.07;;
6519;SDS011;3293;51.690;5.982;2023-06-10T07:23:59;13.50;;;6.55;;
6519;SDS011;3293;51.690;5.982;2023-06-10T07:28:59;11.05;;;5.13;;
6519;SDS011;3293;51.690;5.982;2023-06-10T07:33:59;7.65;;;5.75;;
6519;SDS011;3293;51.690;5.982;2023-06-10T07:38:59;7.95;;;5.40;;
6519;SDS011;3293;51.690;5.982;2023-06-10T07:44:00;16.15;;;6.43;;
6519;SDS011;3293;51.690;5.982;2023-06-10T07:49:00;6.28;;;5.07;;
6519;SDS011;3293;51.690;5.982;2023-06-10T07:54:02;10.07;;;5.47;;
6519;SDS011;3293;51.690;5.982;2023-06-10T07:59:02;9.70;;;4.95;;
6519;SDS011;3293;51.690;5.982;2023-06-10T08:04:03;8.95;;;5.63;;
6519;SDS011;3293;51.690;5.982;2023-06-10T08:09:04;9.23;;;5.35;;
6519;SDS011;3293;51.690;5.982;2023-06-10T08:14:04;8.68;;;5.40;;
6519;SDS011;3293;51.690;5.982;2023-06-10T08:19:04;7.18;;;5.00;;
6519;SDS011;3293;51.690;5.982;2023-06-10T08:24:04;7.70;;;5.10;;
6519;SDS011;3293;51.690;5.982;2023-06-10T08:29:05;8.60;;;4.72;;
6519;SDS011;3293;51.690;5.982;2023-06-10T08:34:05;10.05;;;5.10;;
6519;SDS011;3293;51.690;5.982;2023-06-10T08:39:06;8.77;;;4.97;;
6519;SDS011;3293;51.690;5.982;2023-06-10T08:44:17;8.73;;;5.00;;
6519;SDS011;3293;51.690;5.982;2023-06-10T08:49:26;6.63;;;4.88;;
6519;SDS011;3293;51.690;5.982;2023-06-10T08:54:31;11.43;;;5.35;;
6519;SDS011;3293;51.690;5.982;2023-06-10T08:59:32;18.15;;;6.32;;
6519;SDS011;3293;51.690;5.982;2023-06-10T09:04:32;10.68;;;5.35;;
6519;SDS011;3293;51.690;5.982;2023-06-10T09:09:32;5.63;;;4.70;;
6519;SDS011;3293;51.690;5.982;2023-06-10T09:14:34;6.35;;;4.90;;
6519;SDS011;3293;51.690;5.982;2023-06-10T09:19:35;6.68;;;4.78;;
6519;SDS011;3293;51.690;5.982;2023-06-10T09:24:36;25.58;;;5.95;;
6519;SDS011;3293;51.690;5.982;2023-06-10T09:29:55;11.43;;;5.10;;
6519;SDS011;3293;51.690;5.982;2023-06-10T09:34:57;5.82;;;4.43;;
6519;SDS011;3293;51.690;5.982;2023-06-10T09:40:04;5.97;;;4.25;;
6519;SDS011;3293;51.690;5.982;2023-06-10T09:45:06;8.07;;;5.00;;
6519;SDS011;3293;51.690;5.982;2023-06-10T09:50:07;6.43;;;4.82;;
6519;SDS011;3293;51.690;5.982;2023-06-10T09:55:08;6.40;;;5.00;;
6519;SDS011;3293;51.690;5.982;2023-06-10T10:00:09;7.82;;;5.00;;
6519;SDS011;3293;51.690;5.982;2023-06-10T10:05:12;8.80;;;5.53;;
6519;SDS011;3293;51.690;5.982;2023-06-10T10:10:14;50.88;;;7.30;;
6519;SDS011;3293;51.690;5.982;2023-06-10T10:15:16;23.73;;;5.72;;
6519;SDS011;3293;51.690;5.982;2023-06-10T10:20:19;6.95;;;4.85;;
6519;SDS011;3293;51.690;5.982;2023-06-10T10:25:28;8.95;;;5.53;;
6519;SDS011;3293;51.690;5.982;2023-06-10T10:30:39;21.73;;;5.80;;
6519;SDS011;3293;51.690;5.982;2023-06-10T10:35:40;6.70;;;5.05;;
6519;SDS011;3293;51.690;5.982;2023-06-10T10:40:41;43.13;;;7.22;;
6519;SDS011;3293;51.690;5.982;2023-06-10T10:45:45;6.85;;;4.90;;
6519;SDS011;3293;51.690;5.982;2023-06-10T10:50:55;10.80;;;5.20;;
6519;SDS011;3293;51.690;5.982;2023-06-10T11:01:11;6.55;;;5.30;;
6519;SDS011;3293;51.690;5.982;2023-06-10T11:06:15;10.30;;;5.43;;
6519;SDS011;3293;51.690;5.982;2023-06-10T11:11:24;7.20;;;5.30;;
6519;SDS011;3293;51.690;5.982;2023-06-10T11:16:27;5.45;;;4.82;;
6519;SDS011;3293;51.690;5.982;2023-06-10T11:21:28;9.90;;;5.50;;
6519;SDS011;3293;51.690;5.982;2023-06-10T11:31:32;7.45;;;4.75;;
6519;SDS011;3293;51.690;5.982;2023-06-10T11:36:35;10.38;;;5.63;;
6519;SDS011;3293;51.690;5.982;2023-06-10T11:41:41;8.88;;;5.05;;
6519;SDS011;3293;51.690;5.982;2023-06-10T11:46:41;8.40;;;5.80;;
6519;SDS011;3293;51.690;5.982;2023-06-10T11:51:42;6.68;;;5.10;;
6519;SDS011;3293;51.690;5.982;2023-06-10T11:56:48;10.02;;;4.93;;
6519;SDS011;3293;51.690;5.982;2023-06-10T12:01:48;6.45;;;5.35;;
6519;SDS011;3293;51.690;5.982;2023-06-10T12:06:49;7.03;;;5.35;;
6519;SDS011;3293;51.690;5.982;2023-06-10T12:11:50;6.47;;;5.03;;
6519;SDS011;3293;51.690;5.982;2023-06-10T12:16:52;7.80;;;5.30;;
6519;SDS011;3293;51.690;5.982;2023-06-10T12:21:52;8.05;;;5.30;;
6519;SDS011;3293;51.690;5.982;2023-06-10T12:26:53;8.48;;;5.32;;
6519;SDS011;3293;51.690;5.982;2023-06-10T12:32:04;5.80;;;5.07;;
6519;SDS011;3293;51.690;5.982;2023-06-10T12:37:10;5.65;;;4.88;;
6519;SDS011;3293;51.690;5.982;2023-06-10T12:42:14;7.40;;;5.05;;
6519;SDS011;3293;51.690;5.982;2023-06-10T12:47:13;12.90;;;5.45;;
6519;SDS011;3293;51.690;5.982;2023-06-10T12:52:14;6.95;;;5.20;;
6519;SDS011;3293;51.690;5.982;2023-06-10T12:57:14;6.53;;;5.07;;
6519;SDS011;3293;51.690;5.982;2023-06-10T13:02:14;5.90;;;5.13;;
6519;SDS011;3293;51.690;5.982;2023-06-10T13:07:14;7.40;;;5.25;;
6519;SDS011;3293;51.690;5.982;2023-06-10T13:12:14;6.03;;;5.38;;
6519;SDS011;3293;51.690;5.982;2023-06-10T13:17:14;7.72;;;4.93;;
6519;SDS011;3293;51.690;5.982;2023-06-10T13:22:14;5.07;;;4.55;;
6519;SDS011;3293;51.690;5.982;2023-06-10T13:27:14;5.68;;;5.18;;
6519;SDS011;3293;51.690;5.982;2023-06-10T13:32:14;7.47;;;5.15;;
6519;SDS011;3293;51.690;5.982;2023-06-10T13:37:15;6.50;;;5.10;;
6519;SDS011;3293;51.690;5.982;2023-06-10T13:42:18;6.72;;;4.78;;
6519;SDS011;3293;51.690;5.982;2023-06-10T13:47:19;5.22;;;4.72;;
6519;SDS011;3293;51.690;5.982;2023-06-10T13:52:20;6.32;;;5.47;;
6519;SDS011;3293;51.690;5.982;2023-06-10T13:57:20;6.00;;;5.07;;
6519;SDS011;3293;51.690;5.982;2023-06-10T14:02:20;5.53;;;5.03;;
6519;SDS011;3293;51.690;5.982;2023-06-10T14:07:20;7.03;;;4.90;;
6519;SDS011;3293;51.690;5.982;2023-06-10T14:12:20;6.22;;;4.90;;
6519;SDS011;3293;51.690;5.982;2023-06-10T14:17:20;6.95;;;5.82;;
6519;SDS011;3293;51.690;5.982;2023-06-10T14:22:21;6.60;;;5.18;;
6519;SDS011;3293;51.690;5.982;2023-06-10T14:27:21;8.30;;;5.13;;
6519;SDS011;3293;51.690;5.982;2023-06-10T14:32:21;6.32;;;5.20;;
6519;SDS011;3293;51.690;5.982;2023-06-10T14:37:21;5.82;;;5.18;;
6519;SDS011;3293;51.690;5.982;2023-06-10T14:42:21;5.50;;;5.00;;
6519;SDS011;3293;51.690;5.982;2023-06-10T14:47:21;5.57;;;5.07;;
6519;SDS011;3293;51.690;5.982;2023-06-10T14:52:21;6.45;;;5.28;;
6519;SDS011;3293;51.690;5.982;2023-06-10T14:57:21;7.72;;;5.68;;
6519;SDS011;3293;51.690;5.982;2023-06-10T15:02:22;5.97;;;5.10;;
6519;SDS011;3293;51.690;5.982;2023-06-10T15:07:22;4.82;;;4.32;;
6519;SDS011;3293;51.690;5.982;2023-06-10T15:12:23;10.00;;;5.20;;
6519;SDS011;3293;51.690;5.982;2023-06-10T15:17:24;6.25;;;5.65;;
6519;SDS011;3293;51.690;5.982;2023-06-10T15:22:24;6.88;;;6.10;;
6519;SDS011;3293;51.690;5.982;2023-06-10T15:27:25;7.75;;;5.85;;
6519;SDS011;3293;51.690;5.982;2023-06-10T15:32:25;8.43;;;5.40;;
6519;SDS011;3293;51.690;5.982;2023-06-10T15:37:25;5.60;;;4.57;;
6519;SDS011;3293;51.690;5.982;2023-06-10T15:42:25;7.88;;;5.18;;
6519;SDS011;3293;51.690;5.982;2023-06-10T15:47:25;10.65;;;5.20;;
6519;SDS011;3293;51.690;5.982;2023-06-10T15:52:25;7.13;;;5.03;;
6519;SDS011;3293;51.690;5.982;2023-06-10T15:57:25;7.82;;;5.15;;
6519;SDS011;3293;51.690;5.982;2023-06-10T16:02:25;8.48;;;7.57;;
6519;SDS011;3293;51.690;5.982;2023-06-10T16:07:25;6.45;;;5.38;;
6519;SDS011;3293;51.690;5.982;2023-06-10T16:12:25;8.90;;;6.22;;
6519;SDS011;3293;51.690;5.982;2023-06-10T16:17:26;6.90;;;5.97;;
6519;SDS011;3293;51.690;5.982;2023-06-10T16:22:26;7.63;;;5.20;;
6519;SDS011;3293;51.690;5.982;2023-06-10T16:27:26;10.50;;;7.43;;
6519;SDS011;3293;51.690;5.982;2023-06-10T16:32:26;7.53;;;5.68;;
6519;SDS011;3293;51.690;5.982;2023-06-10T16:37:26;8.95;;;5.32;;
6519;SDS011;3293;51.690;5.982;2023-06-10T16:42:26;7.80;;;5.13;;
6519;SDS011;3293;51.690;5.982;2023-06-10T16:47:26;5.93;;;5.05;;
6519;SDS011;3293;51.690;5.982;2023-06-10T16:52:26;6.03;;;5.28;;
6519;SDS011;3293;51.690;5.982;2023-06-10T16:57:26;5.70;;;5.10;;
6519;SDS011;3293;51.690;5.982;2023-06-10T17:02:26;6.55;;;5.13;;
6519;SDS011;3293;51.690;5.982;2023-06-10T17:07:26;6.65;;;5.32;;
6519;SDS011;3293;51.690;5.982;2023-06-10T17:12:26;8.45;;;5.10;;
6519;SDS011;3293;51.690;5.982;2023-06-10T17:17:27;5.50;;;5.00;;
6519;SDS011;3293;51.690;5.982;2023-06-10T17:22:27;6.13;;;5.40;;
6519;SDS011;3293;51.690;5.982;2023-06-10T17:27:27;6.38;;;5.60;;
6519;SDS011;3293;51.690;5.982;2023-06-10T17:32:27;6.57;;;5.40;;
6519;SDS011;3293;51.690;5.982;2023-06-10T17:37:27;7.85;;;5.13;;
6519;SDS011;3293;51.690;5.982;2023-06-10T17:42:27;12.23;;;5.30;;
6519;SDS011;3293;51.690;5.982;2023-06-10T17:47:27;7.88;;;5.40;;
6519;SDS011;3293;51.690;5.982;2023-06-10T17:52:28;7.07;;;5.47;;
6519;SDS011;3293;51.690;5.982;2023-06-10T17:57:28;7.13;;;4.63;;
6519;SDS011;3293;51.690;5.982;2023-06-10T18:02:30;5.97;;;5.22;;
6519;SDS011;3293;51.690;5.982;2023-06-10T18:07:30;6.93;;;5.75;;
6519;SDS011;3293;51.690;5.982;2023-06-10T18:12:30;6.68;;;5.22;;
6519;SDS011;3293;51.690;5.982;2023-06-10T18:17:31;6.13;;;5.13;;
6519;SDS011;3293;51.690;5.982;2023-06-10T18:22:32;8.63;;;5.32;;
6519;SDS011;3293;51.690;5.982;2023-06-10T18:27:33;6.05;;;5.25;;
6519;SDS011;3293;51.690;5.982;2023-06-10T18:32:33;7.90;;;5.35;;
6519;SDS011;3293;51.690;5.982;2023-06-10T18:37:33;6.93;;;5.40;;
6519;SDS011;3293;51.690;5.982;2023-06-10T18:42:33;7.68;;;5.63;;
6519;SDS011;3293;51.690;5.982;2023-06-10T18:47:33;6.20;;;5.60;;
6519;SDS011;3293;51.690;5.982;2023-06-10T18:52:33;7.03;;;5.13;;
6519;SDS011;3293;51.690;5.982;2023-06-10T18:57:33;8.30;;;5.20;;
6519;SDS011;3293;51.690;5.982;2023-06-10T19:02:34;5.65;;;4.97;;
6519;SDS011;3293;51.690;5.982;2023-06-10T19:07:34;7.22;;;5.25;;
6519;SDS011;3293;51.690;5.982;2023-06-10T19:12:34;6.28;;;5.25;;
6519;SDS011;3293;51.690;5.982;2023-06-10T19:17:34;6.18;;;5.13;;
6519;SDS011;3293;51.690;5.982;2023-06-10T19:22:35;6.68;;;5.63;;
6519;SDS011;3293;51.690;5.982;2023-06-10T19:27:35;6.80;;;5.45;;
6519;SDS011;3293;51.690;5.982;2023-06-10T19:32:35;5.78;;;5.18;;
6519;SDS011;3293;51.690;5.982;2023-06-10T19:37:35;7.28;;;5.55;;
6519;SDS011;3293;51.690;5.982;2023-06-10T19:42:35;8.60;;;5.68;;
6519;SDS011;3293;51.690;5.982;2023-06-10T19:47:38;6.32;;;5.70;;
6519;SDS011;3293;51.690;5.982;2023-06-10T19:52:38;7.03;;;4.90;;
6519;SDS011;3293;51.690;5.982;2023-06-10T19:57:38;7.82;;;5.88;;
6519;SDS011;3293;51.690;5.982;2023-06-10T20:02:38;6.50;;;5.55;;
6519;SDS011;3293;51.690;5.982;2023-06-10T20:07:39;6.82;;;5.32;;
6519;SDS011;3293;51.690;5.982;2023-06-10T20:12:39;9.57;;;5.82;;
6519;SDS011;3293;51.690;5.982;2023-06-10T20:17:40;8.50;;;5.70;;
6519;SDS011;3293;51.690;5.982;2023-06-10T20:22:40;6.18;;;5.50;;
6519;SDS011;3293;51.690;5.982;2023-06-10T20:27:40;9.02;;;6.07;;
6519;SDS011;3293;51.690;5.982;2023-06-10T20:32:40;6.97;;;5.78;;
6519;SDS011;3293;51.690;5.982;2023-06-10T20:37:41;7.68;;;5.72;;
6519;SDS011;3293;51.690;5.982;2023-06-10T20:42:41;6.82;;;5.78;;
6519;SDS011;3293;51.690;5.982;2023-06-10T20:47:42;6.53;;;5.68;;
6519;SDS011;3293;51.690;5.982;2023-06-10T20:52:42;6.50;;;5.80;;
6519;SDS011;3293;51.690;5.982;2023-06-10T20:57:42;6.45;;;5.32;;
6519;SDS011;3293;51.690;5.982;2023-06-10T21:02:42;6.63;;;5.22;;
6519;SDS011;3293;51.690;5.982;2023-06-10T21:07:43;10.80;;;5.57;;
6519;SDS011;3293;51.690;5.982;2023-06-10T21:12:45;5.90;;;5.30;;
6519;SDS011;3293;51.690;5.982;2023-06-10T21:17:46;9.52;;;5.72;;
6519;SDS011;3293;51.690;5.982;2023-06-10T21:22:46;7.65;;;5.75;;
6519;SDS011;3293;51.690;5.982;2023-06-10T21:27:47;8.00;;;5.60;;
6519;SDS011;3293;51.690;5.982;2023-06-10T21:32:48;8.77;;;5.80;;
6519;SDS011;3293;51.690;5.982;2023-06-10T21:37:49;6.32;;;5.40;;
6519;SDS011;3293;51.690;5.982;2023-06-10T21:42:50;8.90;;;5.70;;
6519;SDS011;3293;51.690;5.982;2023-06-10T21:47:50;7.20;;;5.75;;
6519;SDS011;3293;51.690;5.982;2023-06-10T21:52:50;6.57;;;5.90;;
6519;SDS011;3293;51.690;5.982;2023-06-10T21:57:51;7.00;;;5.80;;
6519;SDS011;3293;51.690;5.982;2023-06-10T22:02:51;14.23;;;5.85;;
6519;SDS011;3293;51.690;5.982;2023-06-10T22:07:51;9.55;;;6.50;;
6519;SDS011;3293;51.690;5.982;2023-06-10T22:12:52;7.95;;;6.10;;
6519;SDS011;3293;51.690;5.982;2023-06-10T22:17:52;7.40;;;5.93;;
6519;SDS011;3293;51.690;5.982;2023-06-10T22:22:53;6.72;;;5.80;;
6519;SDS011;3293;51.690;5.982;2023-06-10T22:27:54;7.22;;;6.53;;
6519;SDS011;3293;51.690;5.982;2023-06-10T22:32:55;9.07;;;5.85;;
6519;SDS011;3293;51.690;5.982;2023-06-10T22:37:55;8.77;;;6.28;;
6519;SDS011;3293;51.690;5.982;2023-06-10T22:42:56;7.55;;;5.97;;
6519;SDS011;3293;51.690;5.982;2023-06-10T22:47:57;8.85;;;6.43;;
6519;SDS011;3293;51.690;5.982;2023-06-10T22:52:58;6.68;;;5.97;;
6519;SDS011;3293;51.690;5.982;2023-06-10T22:57:58;9.70;;;5.93;;
6519;SDS011;3293;51.690;5.982;2023-06-10T23:02:59;8.57;;;6.13;;
6519;SDS011;3293;51.690;5.982;2023-06-10T23:08:02;6.38;;;5.78;;
6519;SDS011;3293;51.690;5.982;2023-06-10T23:13:02;7.15;;;6.45;;
6519;SDS011;3293;51.690;5.982;2023-06-10T23:18:02;7.55;;;6.13;;
6519;SDS011;3293;51.690;5.982;2023-06-10T23:23:03;7.38;;;6.57;;
6519;SDS011;3293;51.690;5.982;2023-06-10T23:28:03;10.65;;;6.30;;
6519;SDS011;3293;51.690;5.982;2023-06-10T23:33:03;7.40;;;6.55;;
6519;SDS011;3293;51.690;5.982;2023-06-10T23:38:05;9.35;;;7.00;;
6519;SDS011;3293;51.690;5.982;2023-06-10T23:43:04;8.23;;;6.40;;
6519;SDS011;3293;51.690;5.982;2023-06-10T23:48:05;7.60;;;6.65;;
6519;SDS011;3293;51.690;5.982;2023-06-10T23:53:05;10.75;;;7.53;;
6519;SDS011;3293;51.690;5.982;2023-06-10T23:58:05;10.75;;;7.20;;
